Time;durP1;ratioP1;P1;durP2;ratioP2;P2;SDS_P1;SDS_P2;PMS_P1;PMS_P2;Temp;Humidity;BMP_temperature;BMP_pressure;BME280_temperature;BME280_humidity;BME280_pressure;Samples;Min_cycle;Max_cycle;Signal;HPM_P1;HPM_P2
2022/10/08 00:01:08;;;;;;;11.60;1.92;;;;;;;12.64;100.00;100923.94;4976010;28;20055;-96
2022/10/08 00:03:36;;;;;;;4.40;1.20;;;;;;;12.76;100.00;100942.50;4973132;28;20029;-95
2022/10/08 00:06:04;;;;;;;7.95;1.92;;;;;;;12.60;100.00;100942.66;4988697;28;20027;-96
2022/10/08 00:08:33;;;;;;;13.25;2.33;;;;;;;12.54;100.00;100946.59;4975159;28;20081;-96
2022/10/08 00:11:02;;;;;;;13.23;1.90;;;;;;;12.70;100.00;100955.13;4990382;28;20019;-95
2022/10/08 00:13:39;;;;;;;17.08;2.30;;;;;;;12.66;100.00;100940.47;4988022;28;20027;-95
2022/10/08 00:16:11;;;;;;;13.95;2.25;;;;;;;12.77;100.00;100936.25;4967026;28;20325;-96
2022/10/08 00:18:38;;;;;;;;;;;;;;;12.94;100.00;100964.09;4974553;28;20106;-96
2022/10/08 00:21:15;;;;;;;8.50;1.90;;;;;;;12.80;100.00;100943.97;4975114;28;19925;-95
2022/10/08 00:23:48;;;;;;;8.77;1.48;;;;;;;12.79;100.00;100956.28;4975159;28;20054;-95
2022/10/08 00:26:15;;;;;;;4.80;1.33;;;;;;;12.77;100.00;100974.00;4975671;28;20078;-96
2022/10/08 00:28:44;;;;;;;6.85;1.63;;;;;;;12.54;100.00;100964.16;4974862;28;20031;-96
2022/10/08 00:31:22;;;;;;;9.52;1.67;;;;;;;12.53;100.00;100979.13;4975261;28;20433;-96
2022/10/08 00:33:53;;;;;;;8.88;1.65;;;;;;;12.45;100.00;100989.34;4973223;28;20058;-96
2022/10/08 00:36:18;;;;;;;7.00;1.40;;;;;;;12.26;100.00;100972.13;4979357;28;20031;-95
2022/10/08 00:38:44;;;;;;;7.00;1.30;;;;;;;12.25;100.00;101004.66;4976049;28;20503;-96
2022/10/08 00:41:20;;;;;;;5.68;1.50;;;;;;;12.23;100.00;100984.66;4975243;28;20440;-96
2022/10/08 00:43:52;;;;;;;9.85;1.50;;;;;;;12.28;100.00;100993.94;4972514;28;20499;-95
2022/10/08 00:46:34;;;;;;;5.22;1.30;;;;;;;12.23;100.00;101005.72;4971568;28;20065;-96
2022/10/08 00:49:10;;;;;;;8.93;1.02;;;;;;;12.23;100.00;101013.63;4975243;28;20117;-96
2022/10/08 00:51:40;;;;;;;9.35;1.20;;;;;;;12.05;100.00;100986.69;4974664;28;20508;-96
2022/10/08 00:54:06;;;;;;;9.73;1.25;;;;;;;12.01;100.00;101006.25;4976929;28;20031;-96
2022/10/08 00:56:36;;;;;;;4.88;1.08;;;;;;;11.96;100.00;100995.19;4979066;28;20035;-96
2022/10/08 00:59:02;;;;;;;8.77;1.55;;;;;;;12.03;100.00;101009.66;4975056;28;20436;-95
2022/10/08 01:01:31;;;;;;;8.80;1.73;;;;;;;11.94;100.00;100994.44;4977536;28;20026;-96
2022/10/08 01:04:00;;;;;;;9.55;1.73;;;;;;;12.09;100.00;101017.97;4992897;28;20090;-95
2022/10/08 01:06:29;;;;;;;5.93;1.20;;;;;;;12.14;100.00;101008.94;4995487;28;20031;-94
2022/10/08 01:09:14;;;;;;;12.30;1.98;;;;;;;12.15;100.00;101014.09;4993428;28;20058;-95
2022/10/08 01:11:52;;;;;;;9.82;1.55;;;;;;;12.08;100.00;100997.00;5005879;28;20069;-95
2022/10/08 01:14:38;;;;;;;6.95;1.02;;;;;;;12.19;100.00;101020.84;4990269;28;20018;-95
2022/10/08 01:17:19;;;;;;;7.65;1.25;;;;;;;12.22;100.00;101032.97;4992565;28;20038;-96
2022/10/08 01:20:22;;;;;;;13.45;2.05;;;;;;;12.22;100.00;101028.56;4986066;28;20034;-95
2022/10/08 01:23:06;;;;;;;9.10;1.60;;;;;;;12.29;100.00;101024.56;4989890;28;20042;-95
2022/10/08 01:25:51;;;;;;;3.40;1.17;;;;;;;12.40;100.00;101028.28;4988255;28;20029;-95
2022/10/08 01:28:29;;;;;;;6.20;1.05;;;;;;;12.28;100.00;101008.88;4982557;28;20054;-96
2022/10/08 01:31:06;;;;;;;7.28;1.33;;;;;;;12.34;100.00;101015.53;4989030;28;20034;-96
2022/10/08 01:34:02;;;;;;;7.25;1.60;;;;;;;12.26;100.00;101016.03;4974933;28;20118;-96
2022/10/08 01:36:35;;;;;;;12.60;2.08;;;;;;;12.12;100.00;101013.47;4990599;28;20031;-96
2022/10/08 01:39:05;;;;;;;7.28;1.58;;;;;;;12.20;100.00;101032.22;4973909;28;20027;-96
2022/10/08 01:41:32;;;;;;;7.07;1.70;;;;;;;12.06;100.00;101033.13;4973463;28;20026;-96
2022/10/08 01:44:22;;;;;;;5.30;0.90;;;;;;;12.14;100.00;101037.88;4974001;28;20031;-96
2022/10/08 01:46:50;;;;;;;3.80;0.82;;;;;;;11.95;100.00;101023.28;4971015;28;20023;-96
2022/10/08 01:49:21;;;;;;;5.15;0.90;;;;;;;11.83;100.00;101009.09;4986604;28;20497;-96
2022/10/08 01:51:59;;;;;;;10.85;1.75;;;;;;;11.74;100.00;101019.34;4973855;28;20038;-96
2022/10/08 01:54:29;;;;;;;9.85;1.42;;;;;;;11.69;100.00;101009.13;4973073;28;20397;-95
2022/10/08 01:56:57;;;;;;;7.97;1.38;;;;;;;11.68;100.00;101025.84;4973752;28;20062;-96
2022/10/08 01:59:36;;;;;;;7.57;1.73;;;;;;;11.86;100.00;101034.34;4973554;28;20078;-96
2022/10/08 02:02:19;;;;;;;7.05;1.45;;;;;;;11.79;100.00;101039.19;4973702;28;20031;-96
2022/10/08 02:04:46;;;;;;;3.25;1.45;;;;;;;11.86;100.00;101040.47;4973181;28;20033;-95
2022/10/08 02:07:21;;;;;;;6.47;1.33;;;;;;;11.81;100.00;101054.84;4973724;28;20513;-96
2022/10/08 02:10:00;;;;;;;9.02;1.80;;;;;;;11.80;100.00;101047.91;4972975;28;20118;-96
2022/10/08 02:12:25;;;;;;;11.95;2.15;;;;;;;11.67;100.00;101035.53;4973366;28;20363;-96
2022/10/08 02:14:54;;;;;;;6.88;1.75;;;;;;;11.69;100.00;101036.28;4973020;28;20038;-96
2022/10/08 02:17:50;;;;;;;8.98;1.52;;;;;;;11.83;100.00;101060.88;4973036;28;20477;-96
2022/10/08 02:20:23;;;;;;;6.30;1.60;;;;;;;11.78;100.00;101047.16;4970891;28;20037;-96
2022/10/08 02:23:02;;;;;;;6.93;1.45;;;;;;;11.79;100.00;101054.09;4973395;28;20474;-96
2022/10/08 02:25:45;;;;;;;5.20;1.35;;;;;;;11.77;100.00;101056.84;4972118;28;20035;-96
2022/10/08 02:28:34;;;;;;;5.25;1.10;;;;;;;11.67;100.00;101051.31;4986684;28;20034;-96
2022/10/08 02:31:18;;;;;;;10.93;1.70;;;;;;;11.58;100.00;101037.88;4972232;28;20037;-95
2022/10/08 02:33:51;;;;;;;4.80;1.38;;;;;;;11.58;100.00;101051.03;4973239;28;20114;-96
2022/10/08 02:36:21;;;;;;;12.45;1.50;;;;;;;11.66;100.00;101064.56;4973807;28;20029;-95
2022/10/08 02:38:54;;;;;;;5.50;1.70;;;;;;;11.55;100.00;101046.78;4973509;28;20027;-96
2022/10/08 02:41:27;;;;;;;6.90;1.42;;;;;;;11.51;100.00;101061.06;4973844;28;20023;-95
2022/10/08 02:43:58;;;;;;;10.20;1.88;;;;;;;11.33;100.00;101042.00;4971800;28;20026;-96
2022/10/08 02:46:27;;;;;;;7.53;2.33;;;;;;;11.37;100.00;101051.38;4972877;28;20023;-96
2022/10/08 02:49:05;;;;;;;8.73;1.08;;;;;;;11.46;100.00;101074.50;4973258;28;20023;-96
2022/10/08 02:51:35;;;;;;;11.05;2.05;;;;;;;11.36;100.00;101076.00;4987245;28;20492;-95
2022/10/08 02:54:03;;;;;;;8.85;1.50;;;;;;;11.23;100.00;101051.41;4973507;28;20022;-94
2022/10/08 02:56:42;;;;;;;9.40;1.52;;;;;;;11.36;100.00;101072.53;4973165;28;20023;-96
2022/10/08 02:59:09;;;;;;;7.32;2.10;;;;;;;11.36;100.00;101065.50;4972345;28;20031;-96
2022/10/08 03:01:52;;;;;;;4.38;1.15;;;;;;;11.39;100.00;101061.81;4972966;28;20078;-96
2022/10/08 03:04:24;;;;;;;5.55;1.00;;;;;;;11.48;100.00;101084.94;4973117;28;20066;-96
2022/10/08 03:06:52;;;;;;;9.18;1.95;;;;;;;11.33;100.00;101076.19;4973337;28;20023;-96
2022/10/08 03:09:19;;;;;;;6.72;1.88;;;;;;;11.20;100.00;101067.38;4972801;28;20073;-96
2022/10/08 03:11:45;;;;;;;6.68;1.33;;;;;;;11.23;100.00;101067.16;4972636;28;20041;-96
2022/10/08 03:14:17;;;;;;;9.13;1.48;;;;;;;11.31;100.00;101072.81;4972935;28;20019;-96
2022/10/08 03:16:45;;;;;;;6.32;0.80;;;;;;;11.39;100.00;101090.75;4972598;28;20035;-96
2022/10/08 03:19:16;;;;;;;4.82;1.20;;;;;;;11.23;100.00;101056.66;4972920;28;20050;-96
2022/10/08 03:21:44;;;;;;;8.50;1.52;;;;;;;11.33;100.00;101078.81;4973371;28;20034;-96
2022/10/08 03:24:12;;;;;;;8.50;1.02;;;;;;;11.27;100.00;101072.13;4972686;28;20404;-95
2022/10/08 03:26:38;;;;;;;8.85;1.95;;;;;;;11.14;100.00;101084.34;4972713;28;20113;-96
2022/10/08 03:29:04;;;;;;;8.02;2.30;;;;;;;11.26;100.00;101090.66;4973111;28;20031;-96
2022/10/08 03:31:31;;;;;;;4.30;0.98;;;;;;;11.13;100.00;101093.16;4971993;28;20027;-96
2022/10/08 03:33:56;;;;;;;7.30;1.08;;;;;;;10.96;100.00;101060.00;4968733;28;20041;-96
2022/10/08 03:36:23;;;;;;;7.72;1.75;;;;;;;11.05;100.00;101085.72;4972574;28;20035;-95
2022/10/08 03:38:49;;;;;;;7.30;1.50;;;;;;;11.03;100.00;101100.72;4972602;28;20099;-96
2022/10/08 03:41:16;;;;;;;8.45;1.65;;;;;;;11.15;100.00;101093.06;4973056;28;20023;-96
2022/10/08 03:43:41;;;;;;;8.75;1.17;;;;;;;11.30;100.00;101105.31;4974838;28;20022;-96
2022/10/08 03:46:08;;;;;;;4.90;0.95;;;;;;;11.20;100.00;101093.66;4975684;28;20031;-96
2022/10/08 03:48:34;;;;;;;14.18;2.03;;;;;;;11.35;100.00;101108.47;4974123;28;20062;-96
2022/10/08 03:51:03;;;;;;;19.70;1.70;;;;;;;11.50;100.00;101107.56;4975910;28;20034;-96
2022/10/08 03:53:35;;;;;;;22.92;1.75;;;;;;;11.71;100.00;101131.72;4975620;28;20461;-96
2022/10/08 03:56:01;;;;;;;;;;;;;;;11.76;100.00;101123.53;4975987;28;20089;-96
2022/10/08 03:58:28;;;;;;;9.93;1.83;;;;;;;11.69;100.00;101127.50;4975717;28;19975;-96
2022/10/08 04:00:58;;;;;;;14.88;1.85;;;;;;;11.65;100.00;101118.09;4974821;28;20026;-96
2022/10/08 04:03:25;;;;;;;11.65;1.77;;;;;;;11.80;100.00;101148.72;4975861;28;20039;-96
2022/10/08 04:05:51;;;;;;;9.15;1.40;;;;;;;11.60;100.00;101123.63;4975676;28;20037;-96
2022/10/08 04:08:16;;;;;;;10.27;1.45;;;;;;;11.61;100.00;101129.72;4975354;28;20481;-95
2022/10/08 04:10:42;;;;;;;9.90;1.48;;;;;;;11.65;100.00;101147.03;4976074;28;20035;-95
2022/10/08 04:13:07;;;;;;;8.43;1.30;;;;;;;11.37;100.00;101130.28;4975415;28;20031;-96
2022/10/08 04:15:33;;;;;;;11.80;2.38;;;;;;;11.34;100.00;101138.34;4977367;28;20026;-96
2022/10/08 04:17:59;;;;;;;7.63;1.23;;;;;;;11.30;100.00;101150.00;4978568;28;20029;-96
2022/10/08 04:20:24;;;;;;;9.93;1.92;;;;;;;11.34;100.00;101150.66;4977816;28;20031;-96
2022/10/08 04:22:52;;;;;;;13.07;1.73;;;;;;;11.31;100.00;101139.41;4975808;28;20069;-96
2022/10/08 04:25:18;;;;;;;12.05;1.90;;;;;;;11.36;100.00;101157.53;4975254;28;20037;-96
2022/10/08 04:27:47;;;;;;;13.65;1.75;;;;;;;11.37;100.00;101151.31;4975344;28;20031;-96
2022/10/08 04:30:14;;;;;;;4.93;1.48;;;;;;;11.48;100.00;101169.94;4973972;28;20023;-96
2022/10/08 04:32:40;;;;;;;9.43;1.13;;;;;;;11.59;100.00;101173.69;4975187;28;20111;-96
2022/10/08 04:35:06;;;;;;;10.38;1.60;;;;;;;11.59;100.00;101168.44;4971384;28;20106;-96
2022/10/08 04:37:32;;;;;;;6.93;1.30;;;;;;;11.56;100.00;101168.63;4975230;28;20039;-96
2022/10/08 04:39:57;;;;;;;9.98;1.75;;;;;;;11.47;100.00;101163.00;4974878;28;20037;-96
2022/10/08 04:42:23;;;;;;;5.22;1.02;;;;;;;11.52;100.00;101174.06;4974726;28;20019;-96
2022/10/08 04:44:48;;;;;;;8.55;1.50;;;;;;;11.39;100.00;101167.00;4974829;28;20022;-96
2022/10/08 04:47:14;;;;;;;7.15;1.58;;;;;;;11.27;100.00;101160.69;4991126;28;20026;-96
2022/10/08 04:49:39;;;;;;;7.80;1.27;;;;;;;11.24;100.00;101158.25;4975115;28;20389;-96
2022/10/08 04:52:12;;;;;;;10.20;1.75;;;;;;;11.11;100.00;101163.34;4974791;28;20117;-96
2022/10/08 04:54:38;;;;;;;10.27;1.00;;;;;;;11.04;100.00;101156.78;4975056;28;20026;-96
2022/10/08 04:57:03;;;;;;;7.53;1.60;;;;;;;11.04;100.00;101162.03;4975071;28;20401;-96
2022/10/08 04:59:29;;;;;;;5.07;1.13;;;;;;;10.99;100.00;101185.94;4974033;28;20382;-96
2022/10/08 05:01:55;;;;;;;7.28;1.70;;;;;;;10.80;100.00;101166.91;4974855;28;20374;-95
2022/10/08 05:04:22;;;;;;;17.30;1.42;;;;;;;10.80;100.00;101190.53;4975042;28;20034;-96
2022/10/08 05:06:50;;;;;;;5.05;1.05;;;;;;;10.78;100.00;101200.28;4974434;28;20030;-96
2022/10/08 05:09:25;;;;;;;15.55;2.45;;;;;;;11.00;100.00;101202.53;4974339;28;20067;-96
2022/10/08 05:11:50;;;;;;;10.07;1.80;;;;;;;11.02;100.00;101201.53;4974737;28;20027;-96
2022/10/08 05:14:16;;;;;;;8.52;1.63;;;;;;;11.12;100.00;101207.13;4974093;28;20496;-96
2022/10/08 05:16:45;;;;;;;8.23;1.52;;;;;;;11.21;100.00;101216.25;4974690;28;20031;-96
2022/10/08 05:19:10;;;;;;;8.02;1.73;;;;;;;11.19;100.00;101210.22;4974193;28;20027;-96
2022/10/08 05:21:41;;;;;;;8.93;1.73;;;;;;;11.34;100.00;101224.28;4973769;28;20050;-96
2022/10/08 05:24:10;;;;;;;13.05;1.88;;;;;;;11.29;100.00;101207.00;4973608;28;20023;-96
2022/10/08 05:26:38;;;;;;;10.73;2.03;;;;;;;11.35;100.00;101208.41;4974511;28;20042;-96
2022/10/08 05:29:04;;;;;;;9.63;1.52;;;;;;;11.45;100.00;101225.34;4973233;28;20030;-96
2022/10/08 05:31:31;;;;;;;12.15;1.45;;;;;;;11.43;100.00;101232.50;4973449;28;20031;-95
2022/10/08 05:33:59;;;;;;;13.77;2.13;;;;;;;11.34;100.00;101214.59;4969801;28;20023;-95
2022/10/08 05:36:27;;;;;;;9.65;1.70;;;;;;;11.46;100.00;101221.78;4974037;28;20362;-96
2022/10/08 05:38:55;;;;;;;11.73;2.05;;;;;;;11.45;100.00;101222.72;4973714;28;20027;-96
2022/10/08 05:41:23;;;;;;;8.68;1.83;;;;;;;11.33;100.00;101215.53;4969944;28;20045;-96
2022/10/08 05:43:50;;;;;;;12.02;1.80;;;;;;;11.39;100.00;101217.78;4973535;28;20027;-96
2022/10/08 05:46:17;;;;;;;6.57;1.27;;;;;;;11.40;100.00;101230.03;4974675;28;20085;-96
2022/10/08 05:48:45;;;;;;;11.20;2.20;;;;;;;11.26;100.00;101214.22;4973700;28;20027;-95
2022/10/08 05:51:14;;;;;;;5.13;1.38;;;;;;;11.26;100.00;101219.47;4973777;28;20046;-96
2022/10/08 05:53:43;;;;;;;9.52;2.03;;;;;;;11.31;100.00;101248.94;4973468;28;20019;-96
2022/10/08 05:56:11;;;;;;;7.03;1.02;;;;;;;11.37;100.00;101258.28;4973379;28;20038;-96
2022/10/08 05:58:38;;;;;;;10.63;1.48;;;;;;;11.28;100.00;101249.97;4972893;28;20026;-96
2022/10/08 06:01:21;;;;;;;9.60;2.35;;;;;;;11.30;100.00;101257.78;4973613;28;20037;-96
2022/10/08 06:03:52;;;;;;;15.70;2.38;;;;;;;11.19;100.00;101245.25;4990052;28;20038;-96
2022/10/08 06:06:18;;;;;;;8.32;1.65;;;;;;;11.24;100.00;101271.28;4973506;28;20471;-95
2022/10/08 06:08:45;;;;;;;8.18;1.90;;;;;;;11.21;100.00;101271.44;4973754;28;20041;-96
2022/10/08 06:11:13;;;;;;;7.57;1.55;;;;;;;11.02;100.00;101259.34;4973279;28;20019;-96
2022/10/08 06:13:38;;;;;;;21.42;3.42;;;;;;;11.05;100.00;101264.41;4973012;28;20037;-96
2022/10/08 06:16:09;;;;;;;9.82;1.70;;;;;;;11.14;100.00;101263.06;4972365;28;20118;-96
2022/10/08 06:18:39;;;;;;;18.02;2.58;;;;;;;11.11;100.00;101253.56;4973011;28;20564;-96
2022/10/08 06:21:25;;;;;;;7.78;1.90;;;;;;;11.16;100.00;101270.84;4972547;28;20022;-95
2022/10/08 06:23:53;;;;;;;13.73;2.03;;;;;;;11.26;100.00;101279.94;4974234;28;20031;-95
2022/10/08 06:26:42;;;;;;;10.60;2.00;;;;;;;11.25;100.00;101275.59;4978163;28;20023;-96
2022/10/08 06:29:12;;;;;;;13.93;2.95;;;;;;;11.30;100.00;101270.94;4974101;28;20135;-96
2022/10/08 06:34:33;;;;;;;14.13;3.28;;;;;;;11.37;100.00;101285.41;4960711;28;20015;-96
2022/10/08 11:30:21;;;;;;;7.28;1.48;;;;;;;34.91;30.22;101437.34;5943077;22;20113;-97
2022/10/08 11:56:09;;;;;;;7.22;1.80;;;;;;;32.47;31.32;101430.75;5996255;22;20029;-96
2022/10/08 12:23:44;;;;;;;;;;;;;;;;;;;;;
2022/10/08 12:50:15;;;;;;;4.65;1.02;;;;;;;29.81;33.66;101423.56;5051865;23;20063;-96
2022/10/08 12:52:41;;;;;;;4.38;1.13;;;;;;;29.96;33.67;101420.66;4972926;28;20035;-95
2022/10/08 12:55:15;;;;;;;5.70;1.20;;;;;;;30.08;33.29;101399.19;5009966;23;20074;-96
2022/10/08 12:57:42;;;;;;;8.15;1.58;;;;;;;29.94;33.26;101419.16;4957157;28;20414;-96
2022/10/08 13:07:51;;;;;;;6.10;1.35;;;;;;;29.64;32.84;101392.47;5920241;23;20049;-95
2022/10/08 13:15:49;;;;;;;7.70;1.88;;;;;;;26.81;35.67;101391.63;5443548;23;20058;-92
2022/10/08 13:33:46;;;;;;;7.03;1.63;;;;;;;22.15;44.62;101377.19;5160360;23;20053;-96
2022/10/08 13:36:20;;;;;;;11.80;2.05;;;;;;;22.34;44.04;101391.41;5004510;28;20033;-95
2022/10/08 13:38:46;;;;;;;13.05;3.00;;;;;;;21.81;45.25;101395.00;4982455;28;20030;-96
2022/10/08 13:41:22;;;;;;;8.50;1.35;;;;;;;21.64;45.52;101402.84;4998594;28;20034;-96
2022/10/08 13:43:48;;;;;;;11.32;1.63;;;;;;;21.52;45.41;101396.06;5006130;28;20030;-95
2022/10/08 13:46:14;;;;;;;7.05;2.15;;;;;;;21.33;45.93;101403.19;5005789;28;20083;-96
2022/10/08 13:48:46;;;;;;;13.35;1.88;;;;;;;21.33;47.68;101416.53;5009293;28;20034;-96
2022/10/08 13:51:15;;;;;;;9.30;1.95;;;;;;;21.25;47.58;101413.78;5021916;28;20022;-96
2022/10/08 13:53:44;;;;;;;12.05;2.47;;;;;;;21.08;48.01;101379.84;5008538;28;20038;-96
2022/10/08 13:56:09;;;;;;;12.32;2.47;;;;;;;21.19;47.08;101391.19;5001388;28;20045;-95
2022/10/08 13:58:35;;;;;;;10.38;1.85;;;;;;;21.03;47.37;101406.16;4997820;28;20064;-95
2022/10/08 14:01:00;;;;;;;9.00;1.88;;;;;;;20.74;48.78;101380.44;4997451;28;20547;-95
2022/10/08 14:03:26;;;;;;;7.25;1.55;;;;;;;20.67;49.93;101400.69;4995858;28;20479;-96
2022/10/08 14:05:52;;;;;;;8.43;1.60;;;;;;;20.83;48.35;101419.59;4999215;28;20061;-96
2022/10/08 14:08:24;;;;;;;8.13;1.73;;;;;;;20.39;49.70;101397.94;4997806;28;20024;-96
2022/10/08 14:10:56;;;;;;;7.57;1.70;;;;;;;20.14;46.88;101386.03;4995602;28;20396;-96
2022/10/08 14:13:21;;;;;;;5.28;1.23;;;;;;;20.64;47.30;101393.00;4994417;28;20030;-96
2022/10/08 14:15:47;;;;;;;7.47;1.30;;;;;;;20.47;48.05;101395.38;4995621;28;20030;-96
2022/10/08 14:18:12;;;;;;;9.23;1.45;;;;;;;20.73;48.58;101392.94;4995389;28;20026;-95
2022/10/08 14:20:38;;;;;;;11.23;2.20;;;;;;;20.41;47.01;101382.63;4994695;28;20054;-96
2022/10/08 14:23:04;;;;;;;7.63;1.20;;;;;;;20.53;48.51;101400.13;4997704;28;20077;-96
2022/10/08 14:25:30;;;;;;;7.25;1.77;;;;;;;20.52;48.01;101390.47;4996567;28;20084;-95
2022/10/08 14:27:58;;;;;;;8.32;1.42;;;;;;;20.19;49.84;101365.13;5053769;23;20053;-96
2022/10/08 14:30:24;;;;;;;11.68;2.08;;;;;;;19.90;49.05;101354.53;5000802;28;20010;-95
2022/10/08 14:32:50;;;;;;;9.00;1.70;;;;;;;20.23;49.95;101382.53;4963083;28;20023;-96
2022/10/08 14:35:15;;;;;;;9.43;1.73;;;;;;;19.98;49.42;101366.16;4976962;28;20034;-95
2022/10/08 14:37:41;;;;;;;4.88;1.30;;;;;;;20.06;49.50;101386.75;4983189;28;20034;-94
2022/10/08 14:40:10;;;;;;;8.85;1.50;;;;;;;19.98;50.21;101374.16;4971115;28;20031;-94
2022/10/08 14:42:36;;;;;;;12.23;1.65;;;;;;;19.90;50.67;101386.50;4970995;28;20030;-93
2022/10/08 14:45:02;;;;;;;8.93;2.35;;;;;;;19.71;51.23;101374.00;4967223;28;20476;-94
2022/10/08 14:47:30;;;;;;;6.93;1.45;;;;;;;19.69;52.44;101376.81;4973337;28;20026;-96
2022/10/08 14:49:56;;;;;;;7.88;1.30;;;;;;;19.50;52.86;101352.81;4992850;28;20031;-96
2022/10/08 14:52:22;;;;;;;5.93;0.90;;;;;;;19.66;54.63;101353.09;5002940;28;20115;-96
2022/10/08 14:57:23;;;;;;;9.43;1.40;;;;;;;19.97;54.69;101340.47;5029962;23;20060;-94
2022/10/08 14:59:48;;;;;;;12.55;2.15;;;;;;;20.28;53.23;101366.94;4991606;28;20098;-94
2022/10/08 15:02:15;;;;;;;11.68;2.63;;;;;;;20.26;52.39;101363.59;4984556;28;20011;-96
2022/10/08 15:04:41;;;;;;;3.08;0.80;;;;;;;20.22;49.05;101380.84;4987727;28;20119;-93
2022/10/08 15:07:07;;;;;;;7.47;1.20;;;;;;;20.38;48.27;101350.94;4969069;28;20038;-96
2022/10/08 15:09:33;;;;;;;5.32;0.68;;;;;;;20.15;46.01;101348.59;4975286;28;20037;-96
2022/10/08 15:11:59;;;;;;;7.53;1.48;;;;;;;20.28;46.71;101342.94;4973067;28;20440;-96
2022/10/08 15:14:25;;;;;;;10.05;1.58;;;;;;;20.06;45.14;101337.94;4973843;28;20050;-96
2022/10/08 15:16:50;;;;;;;3.90;1.05;;;;;;;19.49;45.03;101361.78;4988721;28;20066;-95
2022/10/08 15:19:16;;;;;;;6.00;1.25;;;;;;;19.08;44.60;101342.41;4973697;28;20015;-94
2022/10/08 15:21:41;;;;;;;4.65;0.98;;;;;;;19.46;45.39;101351.41;4958394;28;20038;-94
2022/10/08 15:24:07;;;;;;;5.18;1.05;;;;;;;19.31;45.29;101369.59;4964501;28;20027;-96
2022/10/08 15:26:33;;;;;;;3.60;0.55;;;;;;;19.03;45.30;101343.63;4959604;28;20027;-96
2022/10/08 15:29:00;;;;;;;4.65;1.05;;;;;;;18.91;46.33;101342.06;4968233;28;20037;-96
2022/10/08 15:31:33;;;;;;;7.38;1.17;;;;;;;18.96;46.06;101344.34;4969384;28;20050;-96
2022/10/08 15:34:03;;;;;;;14.23;1.20;;;;;;;19.22;45.81;101357.97;4979987;28;20110;-96
2022/10/08 15:36:36;;;;;;;4.53;1.08;;;;;;;19.19;45.07;101351.13;4989155;28;20086;-96
2022/10/08 15:39:23;;;;;;;;;;;;;;;19.40;45.77;101356.31;4968178;28;20118;-96
2022/10/08 15:41:50;;;;;;;5.95;1.15;;;;;;;18.92;47.50;101322.47;4965717;28;20360;-96
2022/10/08 15:44:23;;;;;;;7.60;1.20;;;;;;;18.98;48.82;101353.84;4993151;28;20022;-95
2022/10/08 15:46:57;;;;;;;7.00;1.65;;;;;;;18.98;47.92;101321.91;4971548;28;20043;-96
2022/10/08 15:49:28;;;;;;;2.97;0.60;;;;;;;18.94;45.27;101323.19;4969403;28;20065;-95
2022/10/08 15:52:17;;;;;;;4.40;0.80;;;;;;;18.73;47.91;101317.06;4986682;28;20034;-96
2022/10/08 15:54:49;;;;;;;3.40;0.73;;;;;;;18.59;49.80;101311.13;5050409;23;20299;-96
2022/10/08 16:21:02;;;;;;;;;;;;;;;;;;;;;
2022/10/08 16:23:44;;;;;;;;;;;;;;;;;;;;;
2022/10/08 16:26:22;;;;;;;;;;;;;;;;;;;;;
2022/10/08 16:28:56;;;;;;;5.85;0.82;;;;;;;17.61;57.08;101312.38;4981297;28;20106;-95
2022/10/08 16:31:24;;;;;;;3.83;0.80;;;;;;;17.54;56.54;101305.03;4961628;28;20169;-96
2022/10/08 16:33:55;;;;;;;3.88;1.15;;;;;;;17.52;57.21;101306.97;4976126;28;20030;-96
2022/10/08 16:36:21;;;;;;;3.83;0.60;;;;;;;17.32;58.15;101314.78;4974524;28;20030;-96
2022/10/08 16:38:47;;;;;;;6.05;0.63;;;;;;;17.39;58.60;101323.91;4986229;28;20061;-96
2022/10/08 16:41:28;;;;;;;2.40;0.70;;;;;;;17.25;60.53;101308.28;4976241;28;20125;-96
2022/10/08 16:43:56;;;;;;;5.75;0.80;;;;;;;17.15;58.18;101310.00;4961628;28;20027;-95
2022/10/08 16:46:30;;;;;;;2.22;0.52;;;;;;;17.22;59.99;101317.34;4963729;28;20050;-94
2022/10/08 16:49:09;;;;;;;3.78;1.20;;;;;;;17.01;62.51;101305.81;4972838;28;20023;-96
2022/10/08 16:51:39;;;;;;;7.13;1.15;;;;;;;16.77;65.88;101308.59;5851856;23;20023;-96
2022/10/08 16:54:21;;;;;;;5.47;1.08;;;;;;;16.68;68.21;101309.31;5215690;23;20038;-96
2022/10/08 16:56:50;;;;;;;6.35;1.42;;;;;;;16.42;70.54;101309.56;4988417;28;20094;-96
2022/10/08 16:59:21;;;;;;;3.42;1.25;;;;;;;16.21;73.38;101312.94;4988362;28;20027;-96
2022/10/08 17:01:49;;;;;;;4.80;1.33;;;;;;;16.05;74.33;101305.31;4994929;28;20029;-96
2022/10/08 17:06:52;;;;;;;4.93;1.55;;;;;;;15.84;75.98;101301.66;5319612;23;20051;-96
2022/10/08 17:09:31;;;;;;;4.30;1.38;;;;;;;15.88;78.86;101326.97;4975647;28;20022;-96
2022/10/08 17:11:58;;;;;;;5.63;1.08;;;;;;;15.47;80.57;101305.22;4976730;28;20042;-96
2022/10/08 17:14:23;;;;;;;5.60;0.95;;;;;;;15.27;80.32;101306.69;4974222;28;20030;-96
2022/10/08 17:16:49;;;;;;;5.82;1.05;;;;;;;15.19;80.95;101310.88;4971132;28;20033;-96
2022/10/08 17:19:17;;;;;;;6.53;1.17;;;;;;;15.10;81.28;101304.44;4971598;28;20046;-95
2022/10/08 17:21:50;;;;;;;4.15;0.98;;;;;;;15.08;82.90;101328.34;4971268;28;20031;-96
2022/10/08 17:24:15;;;;;;;2.95;0.82;;;;;;;14.80;81.36;101312.78;4988788;28;20035;-96
2022/10/08 17:26:41;;;;;;;5.90;1.02;;;;;;;14.54;81.20;101309.31;4969243;28;20058;-96
2022/10/08 17:29:11;;;;;;;3.25;0.80;;;;;;;14.46;81.96;101312.50;4992723;28;20022;-96
2022/10/08 17:31:38;;;;;;;3.72;0.68;;;;;;;14.47;82.53;101343.25;4991812;28;20087;-96
2022/10/08 17:34:05;;;;;;;5.20;0.88;;;;;;;14.06;84.15;101312.63;4993535;28;20031;-96
2022/10/08 17:36:56;;;;;;;10.80;1.55;;;;;;;14.02;85.02;101317.25;4963015;28;20030;-96
2022/10/08 17:39:31;;;;;;;3.53;0.85;;;;;;;13.85;85.35;101317.56;4977901;28;20027;-96
2022/10/08 17:41:57;;;;;;;4.20;1.63;;;;;;;14.13;86.04;101353.50;4977140;28;20018;-96
2022/10/08 17:44:23;;;;;;;4.50;0.95;;;;;;;13.88;85.50;101323.47;4992407;28;20022;-96
2022/10/08 17:46:50;;;;;;;4.72;1.00;;;;;;;13.99;87.04;101358.88;4969387;28;20118;-96
2022/10/08 17:49:19;;;;;;;5.93;1.63;;;;;;;13.75;87.26;101341.06;4969388;28;20026;-96
2022/10/08 17:51:57;;;;;;;6.32;1.13;;;;;;;13.82;86.82;101331.81;4972678;28;20015;-96
2022/10/08 17:54:23;;;;;;;7.90;1.08;;;;;;;13.62;88.13;101327.00;4964502;28;20035;-96
2022/10/08 17:56:49;;;;;;;7.85;1.40;;;;;;;13.64;88.57;101351.47;4958606;28;20066;-96
2022/10/08 17:59:21;;;;;;;5.45;1.08;;;;;;;13.59;88.49;101327.22;4968169;29;20031;-96
2022/10/08 18:01:47;;;;;;;7.75;1.40;;;;;;;13.59;88.19;101340.41;4971248;28;20057;-96
2022/10/08 18:04:43;;;;;;;7.65;1.45;;;;;;;13.71;88.60;101338.75;4976127;28;20025;-96
